Time;durP1;ratioP1;P1;durP2;ratioP2;P2;SDS_P1;SDS_P2;PMS_P1;PMS_P2;Temp;Humidity;BMP_temperature;BMP_pressure;BME280_temperature;BME280_humidity;BME280_pressure;Samples;Min_cycle;Max_cycle;Signal;HPM_P1;HPM_P2
2022/03/09 00:02:08;;;;;;;0.60;0.60;;;0.90;99.90;;;;;;5241980;28;20024;-75
2022/03/09 00:04:41;;;;;;;0.68;0.68;;;1.00;99.90;;;;;;5229625;28;21221;-75
2022/03/09 00:07:16;;;;;;;0.60;0.60;;;1.00;99.90;;;;;;5250851;28;20036;-77
2022/03/09 00:09:47;;;;;;;0.95;0.95;;;1.00;99.90;;;;;;5254546;28;20048;-77
2022/03/09 00:12:21;;;;;;;0.50;0.50;;;1.00;99.90;;;;;;5253283;28;20032;-78
2022/03/09 00:14:58;;;;;;;1.35;1.20;;;1.00;99.90;;;;;;5266571;28;20050;-76
2022/03/09 00:17:33;;;;;;;0.50;0.50;;;0.90;99.90;;;;;;5260907;28;20038;-77
2022/03/09 00:20:09;;;;;;;0.50;0.50;;;0.90;99.90;;;;;;5261059;28;20424;-76
2022/03/09 00:22:40;;;;;;;0.70;0.70;;;0.90;99.90;;;;;;5221776;28;20107;-76
2022/03/09 00:25:11;;;;;;;0.40;0.40;;;0.80;99.90;;;;;;5248479;28;20029;-76
2022/03/09 00:27:48;;;;;;;0.40;0.40;;;0.80;99.90;;;;;;5239766;28;20052;-76
2022/03/09 00:30:20;;;;;;;0.55;0.55;;;0.80;99.90;;;;;;5241837;28;20046;-76
2022/03/09 00:32:56;;;;;;;0.50;0.50;;;0.80;99.90;;;;;;5255986;28;20054;-75
2022/03/09 00:35:28;;;;;;;0.80;0.80;;;0.80;99.90;;;;;;5228028;28;20060;-75
2022/03/09 00:38:02;;;;;;;0.80;0.80;;;0.70;99.90;;;;;;5234603;28;20046;-76
2022/03/09 00:40:40;;;;;;;0.55;0.55;;;0.80;99.90;;;;;;5247632;28;20037;-77
2022/03/09 00:43:15;;;;;;;0.68;0.68;;;0.80;99.90;;;;;;5257989;28;20028;-77
2022/03/09 00:45:49;;;;;;;0.50;0.50;;;0.70;99.90;;;;;;5257137;28;20036;-76
2022/03/09 00:48:23;;;;;;;;;;;0.70;99.90;;;;;;5235779;28;20032;-78
2022/03/09 00:50:55;;;;;;;0.60;0.60;;;0.70;99.90;;;;;;5248773;28;19921;-77
2022/03/09 00:53:27;;;;;;;0.82;0.82;;;0.70;99.90;;;;;;5250232;28;20039;-77
2022/03/09 00:56:04;;;;;;;1.25;1.25;;;0.70;99.90;;;;;;5216931;28;20045;-77
2022/03/09 00:58:38;;;;;;;0.40;0.40;;;0.80;99.90;;;;;;5236501;28;20486;-77
2022/03/09 01:01:11;;;;;;;0.50;0.50;;;0.90;99.90;;;;;;5274228;28;20044;-76
2022/03/09 01:03:43;;;;;;;0.68;0.68;;;0.90;99.90;;;;;;5267329;28;20040;-77
2022/03/09 01:06:15;;;;;;;0.50;0.50;;;1.00;99.90;;;;;;5223631;28;20069;-77
2022/03/09 01:08:51;;;;;;;1.13;1.13;;;0.90;99.90;;;;;;5246265;28;20230;-77
2022/03/09 01:11:26;;;;;;;1.98;0.70;;;1.00;99.90;;;;;;5254695;28;20028;-77
2022/03/09 01:14:02;;;;;;;0.70;0.70;;;0.90;99.90;;;;;;5244086;28;20054;-77
2022/03/09 01:16:38;;;;;;;0.90;0.90;;;0.90;99.90;;;;;;5227535;28;20039;-75
2022/03/09 01:19:12;;;;;;;0.75;0.75;;;0.80;99.90;;;;;;5258031;28;20035;-78
2022/03/09 01:21:46;;;;;;;0.50;0.50;;;0.70;99.90;;;;;;5248783;28;20042;-77
2022/03/09 01:24:20;;;;;;;0.60;0.60;;;0.80;99.90;;;;;;5252985;28;20040;-77
2022/03/09 01:26:53;;;;;;;0.90;0.68;;;0.80;99.90;;;;;;5213067;28;20052;-78
2022/03/09 01:29:29;;;;;;;0.93;0.93;;;1.00;99.90;;;;;;5242264;28;20073;-78
2022/03/09 01:32:06;;;;;;;0.70;0.70;;;1.00;99.90;;;;;;5271121;28;20046;-76
2022/03/09 01:34:40;;;;;;;0.88;0.88;;;1.10;99.90;;;;;;5259084;28;20039;-79
2022/03/09 01:37:14;;;;;;;0.55;0.55;;;1.00;99.90;;;;;;5258090;28;20032;-76
2022/03/09 01:39:46;;;;;;;0.77;0.77;;;1.00;99.90;;;;;;5230913;28;20042;-77
2022/03/09 01:42:17;;;;;;;0.50;0.50;;;1.00;99.90;;;;;;5255076;28;20031;-76
2022/03/09 01:44:52;;;;;;;1.25;1.25;;;1.00;99.90;;;;;;5250474;28;20043;-76
2022/03/09 01:47:23;;;;;;;0.57;0.57;;;1.00;99.90;;;;;;5260537;28;20174;-76
2022/03/09 01:49:57;;;;;;;0.55;0.55;;;1.10;99.90;;;;;;5257282;28;20036;-75
2022/03/09 01:52:32;;;;;;;0.50;0.50;;;1.10;99.90;;;;;;5257367;28;20526;-77
2022/03/09 01:55:08;;;;;;;0.52;0.52;;;1.10;99.90;;;;;;5229931;28;20045;-76
2022/03/09 01:57:43;;;;;;;1.05;0.98;;;1.10;99.90;;;;;;5238564;28;20036;-77
2022/03/09 02:00:15;;;;;;;0.50;0.50;;;1.10;99.90;;;;;;5233883;28;20191;-77
2022/03/09 02:02:48;;;;;;;0.55;0.55;;;1.00;99.90;;;;;;5248606;28;20366;-77
2022/03/09 02:05:23;;;;;;;0.90;0.90;;;1.00;99.90;;;;;;5243603;28;20059;-75
2022/03/09 02:10:53;;;;;;;0.60;0.60;;;0.80;99.90;;;;;;5253176;28;20024;-77
2022/03/09 02:13:25;;;;;;;0.80;0.80;;;0.70;99.90;;;;;;5245772;28;20039;-76
2022/03/09 02:15:59;;;;;;;0.40;0.40;;;0.70;99.90;;;;;;5228663;28;20063;-76
2022/03/09 02:18:38;;;;;;;0.57;0.57;;;0.60;99.90;;;;;;5235343;28;20034;-78
2022/03/09 02:21:15;;;;;;;0.50;0.50;;;0.60;99.90;;;;;;5243538;28;20040;-76
2022/03/09 02:23:47;;;;;;;0.52;0.52;;;0.60;99.90;;;;;;5263920;28;20041;-76
2022/03/09 02:26:20;;;;;;;0.50;0.50;;;0.70;99.90;;;;;;5218630;28;20056;-76
2022/03/09 02:28:59;;;;;;;1.27;1.27;;;0.70;99.90;;;;;;5229117;28;20031;-78
2022/03/09 02:31:35;;;;;;;0.60;0.60;;;0.60;99.90;;;;;;5246981;28;20044;-77
2022/03/09 02:34:10;;;;;;;0.60;0.60;;;0.60;99.90;;;;;;5222953;28;20058;-75
2022/03/09 02:36:46;;;;;;;0.50;0.50;;;0.60;99.90;;;;;;5228747;28;20040;-76
2022/03/09 02:39:23;;;;;;;0.35;0.35;;;0.60;99.90;;;;;;5239200;28;20106;-76
2022/03/09 02:41:54;;;;;;;1.55;1.45;;;0.60;99.90;;;;;;5247689;28;20039;-76
2022/03/09 02:44:25;;;;;;;0.80;0.80;;;0.60;99.90;;;;;;5227429;28;20026;-74
2022/03/09 02:46:57;;;;;;;0.52;0.52;;;0.60;99.90;;;;;;5258729;28;20039;-75
2022/03/09 02:49:39;;;;;;;0.50;0.50;;;0.60;99.90;;;;;;5265715;28;20030;-75
2022/03/09 02:52:15;;;;;;;0.50;0.50;;;0.60;99.90;;;;;;5255999;28;20046;-77
2022/03/09 02:54:52;;;;;;;0.80;0.80;;;0.60;99.90;;;;;;5244789;28;20402;-76
2022/03/09 02:57:23;;;;;;;0.40;0.40;;;0.70;99.90;;;;;;5235479;28;20027;-76
2022/03/09 03:00:13;;;;;;;0.60;0.60;;;0.70;99.90;;;;;;5227511;28;20050;-76
2022/03/09 03:02:44;;;;;;;0.50;0.50;;;0.70;99.90;;;;;;5251656;28;20040;-76
2022/03/09 03:05:16;;;;;;;0.50;0.50;;;0.80;99.90;;;;;;5220166;28;20395;-75
2022/03/09 03:07:47;;;;;;;0.47;0.47;;;0.80;99.90;;;;;;5245072;28;20028;-76
2022/03/09 03:10:21;;;;;;;0.40;0.40;;;0.70;99.90;;;;;;5228929;28;20039;-75
2022/03/09 03:12:53;;;;;;;0.40;0.40;;;0.70;99.90;;;;;;5246656;28;20040;-77
2022/03/09 03:15:24;;;;;;;0.85;0.85;;;0.70;99.90;;;;;;5230859;28;20054;-77
2022/03/09 03:17:59;;;;;;;0.95;0.95;;;0.70;99.90;;;;;;5267335;28;20559;-77
2022/03/09 03:20:30;;;;;;;0.70;0.70;;;0.60;99.90;;;;;;5242457;28;20028;-78
2022/03/09 03:23:02;;;;;;;0.50;0.50;;;0.50;99.90;;;;;;5268383;28;20028;-77
2022/03/09 03:25:42;;;;;;;0.52;0.52;;;0.40;99.90;;;;;;5229153;28;20045;-77
2022/03/09 03:28:20;;;;;;;0.40;0.40;;;0.30;99.90;;;;;;5253768;28;20107;-77
2022/03/09 03:30:54;;;;;;;0.70;0.70;;;0.10;99.90;;;;;;5246327;28;20030;-76
2022/03/09 03:33:29;;;;;;;0.40;0.40;;;0.00;99.90;;;;;;5220223;28;20082;-76
2022/03/09 03:36:04;;;;;;;0.77;0.77;;;0.00;99.90;;;;;;5260458;28;20110;-77
2022/03/09 03:38:40;;;;;;;0.57;0.57;;;0.00;99.90;;;;;;5261381;28;20034;-76
2022/03/09 03:41:13;;;;;;;1.02;1.02;;;-0.10;99.90;;;;;;5230671;28;20482;-76
2022/03/09 03:43:50;;;;;;;0.95;0.95;;;0.00;99.90;;;;;;5229467;28;20020;-75
2022/03/09 03:46:26;;;;;;;1.20;1.20;;;-0.10;99.90;;;;;;5240931;28;20048;-76
2022/03/09 03:49:00;;;;;;;0.90;0.90;;;0.10;99.90;;;;;;5246468;28;20043;-76
2022/03/09 03:51:37;;;;;;;0.40;0.40;;;0.40;99.90;;;;;;5244977;28;20052;-75
2022/03/09 03:54:11;;;;;;;0.85;0.85;;;0.60;99.90;;;;;;5204919;28;20051;-77
2022/03/09 03:56:43;;;;;;;0.55;0.55;;;0.60;99.90;;;;;;5244932;28;20054;-75
2022/03/09 03:59:22;;;;;;;0.50;0.50;;;0.60;99.90;;;;;;5242753;28;20037;-74
2022/03/09 04:01:56;;;;;;;0.38;0.38;;;0.60;99.90;;;;;;5229467;28;20029;-75
2022/03/09 04:04:28;;;;;;;1.02;1.02;;;0.50;99.90;;;;;;5237982;28;20035;-75
2022/03/09 04:07:00;;;;;;;0.60;0.60;;;0.50;99.90;;;;;;5222224;28;20041;-76
2022/03/09 04:09:31;;;;;;;0.40;0.40;;;0.30;99.90;;;;;;5212670;28;20037;-76
2022/03/09 04:12:06;;;;;;;1.67;1.58;;;0.00;99.90;;;;;;5214706;28;20056;-76
2022/03/09 04:14:39;;;;;;;0.80;0.80;;;-0.20;99.90;;;;;;5248608;28;20348;-75
2022/03/09 04:17:12;;;;;;;0.50;0.50;;;-0.40;99.90;;;;;;5212134;28;20029;-77
2022/03/09 04:19:46;;;;;;;0.93;0.93;;;-0.30;99.90;;;;;;5216136;28;20020;-77
2022/03/09 04:22:20;;;;;;;0.70;0.70;;;-0.10;99.90;;;;;;5231441;28;20039;-75
2022/03/09 04:24:59;;;;;;;0.50;0.50;;;0.10;99.90;;;;;;5249370;28;20036;-76
2022/03/09 04:27:33;;;;;;;0.60;0.60;;;0.20;99.90;;;;;;5248296;28;20037;-77
2022/03/09 04:30:09;;;;;;;1.75;1.58;;;0.20;99.90;;;;;;5242039;28;20045;-78
2022/03/09 04:32:41;;;;;;;1.27;1.23;;;0.20;99.90;;;;;;5233891;28;20043;-75
2022/03/09 04:35:12;;;;;;;0.45;0.45;;;0.20;99.90;;;;;;5245205;28;20056;-76
2022/03/09 04:37:44;;;;;;;1.58;1.15;;;0.20;99.90;;;;;;5249001;28;20036;-76
2022/03/09 04:40:19;;;;;;;2.53;2.38;;;0.10;99.90;;;;;;5229377;28;20254;-76
2022/03/09 04:42:56;;;;;;;0.50;0.50;;;0.00;99.90;;;;;;5230007;28;20037;-76
2022/03/09 04:45:30;;;;;;;2.60;2.45;;;0.00;99.90;;;;;;5247555;28;20587;-76
2022/03/09 04:48:04;;;;;;;0.57;0.57;;;0.00;99.90;;;;;;5252142;28;20052;-76
2022/03/09 04:50:43;;;;;;;0.32;0.32;;;0.10;99.90;;;;;;5233186;28;20036;-76
2022/03/09 04:53:15;;;;;;;0.50;0.50;;;0.20;99.90;;;;;;5233010;28;20528;-75
2022/03/09 04:55:49;;;;;;;1.27;0.95;;;0.40;99.90;;;;;;5243063;28;20031;-77
2022/03/09 04:58:22;;;;;;;;;;;0.50;99.90;;;;;;5248871;28;20037;-75
2022/03/09 05:00:53;;;;;;;0.50;0.50;;;0.50;99.90;;;;;;5248169;28;19908;-77
2022/03/09 05:03:25;;;;;;;0.70;0.70;;;0.60;99.90;;;;;;5250720;28;20052;-75
2022/03/09 05:06:00;;;;;;;0.50;0.50;;;0.70;99.90;;;;;;5223486;28;20049;-75
2022/03/09 05:08:31;;;;;;;0.50;0.50;;;0.70;99.90;;;;;;5212430;28;20024;-76
2022/03/09 05:11:06;;;;;;;0.50;0.50;;;0.80;99.90;;;;;;5226263;28;20040;-75
2022/03/09 05:13:40;;;;;;;;;;;0.70;99.90;;;;;;5249409;28;20070;-76
2022/03/09 05:16:15;;;;;;;0.40;0.40;;;0.70;99.90;;;;;;5214249;28;19921;-74
2022/03/09 05:18:52;;;;;;;0.40;0.40;;;0.70;99.90;;;;;;5249066;28;20361;-76
2022/03/09 05:21:29;;;;;;;0.65;0.65;;;0.80;99.90;;;;;;5242507;28;20044;-76
2022/03/09 05:24:01;;;;;;;0.60;0.60;;;0.90;99.90;;;;;;5239931;28;20032;-76
2022/03/09 05:26:32;;;;;;;0.55;0.55;;;0.90;99.90;;;;;;5228252;28;20048;-75
2022/03/09 05:29:12;;;;;;;1.08;1.08;;;0.90;99.90;;;;;;5213625;28;20041;-75
2022/03/09 05:31:47;;;;;;;0.50;0.50;;;1.00;99.90;;;;;;5234209;28;20625;-76
2022/03/09 05:34:22;;;;;;;1.00;1.00;;;1.00;99.90;;;;;;5227156;28;20135;-77
2022/03/09 05:36:56;;;;;;;0.50;0.50;;;0.90;99.90;;;;;;5201974;28;20039;-77
2022/03/09 05:39:33;;;;;;;1.27;1.27;;;0.90;99.90;;;;;;5172672;28;1185474;-79
2022/03/09 05:42:07;;;;;;;0.40;0.40;;;0.80;99.90;;;;;;5260886;28;20033;-75
2022/03/09 05:44:41;;;;;;;1.67;1.58;;;0.60;99.90;;;;;;5226802;28;20362;-76
2022/03/09 05:47:16;;;;;;;0.40;0.40;;;0.60;99.90;;;;;;5248969;28;20042;-76
2022/03/09 05:49:50;;;;;;;0.75;0.75;;;0.60;99.90;;;;;;5234376;28;20032;-75
2022/03/09 05:52:22;;;;;;;0.73;0.73;;;0.60;99.90;;;;;;5237806;28;20056;-76
2022/03/09 05:54:56;;;;;;;1.95;1.83;;;0.60;99.90;;;;;;5224649;28;20036;-76
2022/03/09 05:57:31;;;;;;;0.45;0.45;;;0.60;99.90;;;;;;5219428;28;20045;-78
2022/03/09 06:00:08;;;;;;;0.55;0.55;;;0.60;99.90;;;;;;5220455;28;20048;-77
2022/03/09 06:02:44;;;;;;;0.88;0.85;;;0.60;99.90;;;;;;5223295;28;20043;-76
2022/03/09 06:05:19;;;;;;;0.60;0.60;;;0.60;99.90;;;;;;5206685;28;20057;-78
2022/03/09 06:07:55;;;;;;;0.40;0.40;;;0.70;99.90;;;;;;5238568;28;20031;-79
2022/03/09 06:10:27;;;;;;;0.60;0.60;;;0.90;99.90;;;;;;5220703;28;20627;-77
2022/03/09 06:12:58;;;;;;;0.68;0.68;;;1.20;99.90;;;;;;5257160;28;20034;-79
2022/03/09 06:15:32;;;;;;;0.47;0.47;;;1.30;99.90;;;;;;5232462;28;20048;-77
2022/03/09 06:18:05;;;;;;;0.95;0.95;;;1.40;99.90;;;;;;5264564;28;20452;-79
2022/03/09 06:20:44;;;;;;;0.63;0.63;;;1.40;99.90;;;;;;5243128;28;20394;-78
2022/03/09 06:23:17;;;;;;;0.73;0.73;;;1.40;99.90;;;;;;5263959;28;20495;-77
2022/03/09 06:25:54;;;;;;;0.80;0.80;;;1.30;99.90;;;;;;5227705;28;20032;-77
2022/03/09 06:28:28;;;;;;;0.60;0.60;;;1.30;99.90;;;;;;5264977;28;20020;-79
2022/03/09 06:31:02;;;;;;;0.52;0.52;;;1.40;99.90;;;;;;5262659;28;20032;-79
2022/03/09 06:33:39;;;;;;;0.57;0.57;;;1.50;99.90;;;;;;5236849;28;20036;-78
2022/03/09 06:36:11;;;;;;;0.93;0.93;;;1.60;99.90;;;;;;5256107;28;20039;-79
2022/03/09 06:38:43;;;;;;;0.90;0.90;;;1.60;99.90;;;;;;5237538;28;20043;-77
2022/03/09 06:41:15;;;;;;;0.70;0.70;;;1.70;99.90;;;;;;5242643;28;20344;-75
2022/03/09 06:43:50;;;;;;;0.60;0.60;;;1.80;99.90;;;;;;5226391;28;20047;-75
2022/03/09 06:46:22;;;;;;;0.60;0.60;;;1.90;99.90;;;;;;5217713;28;20040;-76
2022/03/09 06:48:56;;;;;;;1.00;1.00;;;2.00;99.90;;;;;;5231209;28;20043;-75
2022/03/09 06:51:30;;;;;;;0.60;0.60;;;2.10;99.90;;;;;;5261159;28;20042;-77
2022/03/09 06:54:02;;;;;;;0.43;0.43;;;2.20;99.90;;;;;;5256974;28;20478;-76
2022/03/09 06:56:33;;;;;;;0.40;0.40;;;2.20;99.90;;;;;;5257190;28;20462;-78
2022/03/09 06:59:05;;;;;;;0.70;0.70;;;2.30;99.90;;;;;;5257264;28;20473;-77
2022/03/09 07:01:36;;;;;;;0.52;0.52;;;2.30;99.90;;;;;;5249698;28;20023;-75
2022/03/09 07:04:10;;;;;;;0.70;0.70;;;2.40;99.90;;;;;;5253256;28;20031;-76
2022/03/09 07:06:42;;;;;;;1.48;1.38;;;2.50;99.90;;;;;;5217475;28;20048;-75
2022/03/09 07:09:16;;;;;;;0.60;0.60;;;2.70;99.90;;;;;;5247984;28;20063;-75
2022/03/09 07:11:50;;;;;;;1.33;1.33;;;2.80;99.90;;;;;;5263016;28;20036;-76
2022/03/09 07:14:22;;;;;;;0.88;0.88;;;3.10;99.90;;;;;;5249288;28;20047;-77
2022/03/09 07:16:53;;;;;;;0.60;0.60;;;3.30;99.90;;;;;;5259500;28;20038;-75
2022/03/09 07:19:25;;;;;;;0.40;0.40;;;3.30;99.90;;;;;;5247607;28;20058;-75
2022/03/09 07:21:59;;;;;;;0.50;0.50;;;3.50;99.90;;;;;;5262158;28;20047;-77
2022/03/09 07:24:30;;;;;;;0.65;0.65;;;3.60;99.90;;;;;;5257458;28;20048;-75
2022/03/09 07:27:10;;;;;;;0.52;0.52;;;3.50;99.90;;;;;;5214308;28;20457;-76
2022/03/09 07:29:49;;;;;;;0.70;0.70;;;3.70;99.90;;;;;;5247749;28;20066;-76
2022/03/09 07:32:25;;;;;;;0.60;0.60;;;3.80;99.90;;;;;;5257400;28;20055;-75
2022/03/09 07:34:57;;;;;;;0.73;0.73;;;4.10;99.90;;;;;;5246704;28;20242;-77
2022/03/09 07:37:29;;;;;;;0.60;0.60;;;4.30;99.90;;;;;;5249718;28;20040;-76
2022/03/09 07:40:00;;;;;;;0.47;0.47;;;4.10;99.90;;;;;;5221708;28;20045;-76
2022/03/09 07:42:37;;;;;;;0.80;0.80;;;4.00;99.90;;;;;;5209676;28;20037;-74
2022/03/09 07:45:09;;;;;;;1.00;1.00;;;4.00;99.90;;;;;;5250052;28;20357;-74
2022/03/09 07:47:40;;;;;;;0.55;0.55;;;4.10;99.90;;;;;;5238496;28;20034;-76
2022/03/09 07:50:12;;;;;;;0.50;0.50;;;4.40;99.90;;;;;;5241282;28;20527;-75
2022/03/09 07:52:43;;;;;;;0.50;0.50;;;4.50;99.90;;;;;;5249771;28;20095;-74
2022/03/09 07:55:15;;;;;;;0.60;0.60;;;4.50;99.90;;;;;;5237701;28;20033;-75
2022/03/09 07:57:47;;;;;;;0.90;0.90;;;4.50;99.90;;;;;;5256984;28;20040;-75
2022/03/09 08:00:18;;;;;;;1.13;1.13;;;4.60;99.90;;;;;;5226639;28;20024;-75
2022/03/09 08:02:52;;;;;;;11.52;1.85;;;4.60;99.90;;;;;;5240735;28;20056;-76
2022/03/09 08:05:23;;;;;;;0.55;0.55;;;4.60;99.90;;;;;;5244138;28;20482;-75
2022/03/09 08:07:55;;;;;;;0.52;0.52;;;4.90;99.90;;;;;;5252686;28;20041;-76
2022/03/09 08:10:30;;;;;;;2.25;2.13;;;4.90;99.90;;;;;;5226586;28;20048;-74
2022/03/09 08:13:01;;;;;;;;;;;5.00;99.90;;;;;;5220102;28;20036;-75
2022/03/09 08:15:40;;;;;;;1.65;1.55;;;5.10;99.90;;;;;;5242255;28;19920;-75
2022/03/09 08:18:11;;;;;;;0.60;0.60;;;5.10;99.90;;;;;;5241093;28;20394;-76
2022/03/09 08:20:45;;;;;;;0.60;0.60;;;4.90;99.90;;;;;;5255122;28;20042;-77
2022/03/09 08:23:24;;;;;;;0.60;0.60;;;5.30;99.90;;;;;;5258406;28;20038;-77
2022/03/09 08:25:58;;;;;;;0.47;0.47;;;5.70;99.90;;;;;;5241910;28;20039;-79
2022/03/09 08:28:32;;;;;;;;;;;5.50;99.90;;;;;;5251994;28;20043;-77
2022/03/09 08:31:03;;;;;;;0.75;0.75;;;5.50;99.90;;;;;;5238483;28;19950;-77
2022/03/09 08:33:35;;;;;;;0.77;0.77;;;5.90;99.90;;;;;;5238712;28;20055;-77
2022/03/09 08:36:11;;;;;;;0.70;0.70;;;5.80;99.90;;;;;;5244167;28;20027;-79
2022/03/09 08:38:43;;;;;;;0.55;0.55;;;6.00;99.90;;;;;;5229133;28;20044;-77
2022/03/09 08:41:15;;;;;;;1.23;1.23;;;6.10;99.90;;;;;;5228893;28;20343;-77
2022/03/09 08:43:47;;;;;;;0.82;0.82;;;6.30;99.90;;;;;;5226627;28;20052;-77
2022/03/09 08:46:21;;;;;;;0.88;0.88;;;6.20;99.90;;;;;;5258383;28;20050;-76
2022/03/09 08:48:57;;;;;;;0.80;0.80;;;6.10;99.90;;;;;;5261407;28;20511;-77
2022/03/09 08:51:29;;;;;;;0.80;0.80;;;6.20;99.90;;;;;;5257402;28;20044;-78
2022/03/09 08:54:00;;;;;;;0.68;0.68;;;6.50;99.90;;;;;;5247924;28;20020;-76
2022/03/09 08:56:32;;;;;;;0.50;0.50;;;6.30;99.90;;;;;;5258531;28;20052;-77
2022/03/09 08:59:04;;;;;;;0.70;0.70;;;6.30;99.90;;;;;;5227989;28;20044;-76
2022/03/09 09:01:41;;;;;;;;;;;6.90;99.90;;;;;;5225999;28;20035;-78
2022/03/09 09:04:16;;;;;;;1.25;1.20;;;6.70;99.90;;;;;;5216789;28;19931;-74
2022/03/09 09:06:49;;;;;;;0.60;0.60;;;6.70;99.90;;;;;;5244448;28;20054;-77
2022/03/09 09:09:21;;;;;;;1.00;1.00;;;6.60;99.90;;;;;;5243622;28;20071;-75
2022/03/09 09:11:54;;;;;;;0.68;0.68;;;6.80;99.90;;;;;;5245392;28;20034;-75
2022/03/09 09:14:29;;;;;;;1.80;1.75;;;6.70;99.90;;;;;;5241316;28;20042;-75
2022/03/09 09:17:00;;;;;;;0.70;0.70;;;6.70;99.90;;;;;;5250722;28;20047;-76
2022/03/09 09:19:33;;;;;;;0.95;0.95;;;6.80;99.90;;;;;;5267046;28;20036;-75
2022/03/09 09:22:07;;;;;;;1.05;1.05;;;7.20;99.90;;;;;;5260283;28;20489;-75
2022/03/09 09:24:38;;;;;;;1.60;1.50;;;7.00;99.90;;;;;;5212745;28;20036;-76
2022/03/09 09:27:13;;;;;;;0.65;0.65;;;7.10;99.90;;;;;;5228646;28;20044;-79
2022/03/09 09:29:47;;;;;;;1.20;1.20;;;7.70;99.90;;;;;;5252365;28;20050;-75
2022/03/09 09:32:22;;;;;;;3.05;2.78;;;7.10;99.90;;;;;;5261292;28;20039;-75
2022/03/09 09:34:53;;;;;;;;;;;7.00;99.90;;;;;;5239343;28;20044;-76
2022/03/09 09:37:26;;;;;;;0.70;0.70;;;7.30;99.90;;;;;;5251954;28;19921;-75
2022/03/09 09:40:00;;;;;;;1.50;1.40;;;7.70;99.90;;;;;;5234122;28;20062;-75
2022/03/09 09:42:32;;;;;;;1.17;1.17;;;7.50;99.90;;;;;;5253377;28;20040;-75
2022/03/09 09:45:11;;;;;;;0.60;0.60;;;7.20;99.90;;;;;;5225216;28;20058;-75
2022/03/09 09:47:48;;;;;;;0.68;0.68;;;7.30;99.90;;;;;;5237881;28;20036;-75
2022/03/09 09:50:22;;;;;;;0.90;0.90;;;7.50;99.90;;;;;;5236115;28;20032;-75
2022/03/09 09:52:54;;;;;;;1.25;1.25;;;7.60;99.90;;;;;;5249600;28;20066;-71
2022/03/09 09:55:27;;;;;;;1.95;1.85;;;8.10;99.90;;;;;;5217736;28;20048;-75
2022/03/09 09:58:04;;;;;;;0.70;0.70;;;7.60;99.90;;;;;;5235236;28;20094;-74
2022/03/09 10:00:36;;;;;;;1.17;1.17;;;8.00;99.90;;;;;;5246413;28;20039;-76
2022/03/09 10:03:12;;;;;;;0.90;0.90;;;8.30;99.90;;;;;;5244495;28;20032;-74
2022/03/09 10:05:47;;;;;;;1.55;1.45;;;8.00;99.90;;;;;;5247423;28;20087;-75
2022/03/09 10:08:21;;;;;;;1.00;1.00;;;8.00;99.90;;;;;;5257498;28;20044;-75
2022/03/09 10:11:03;;;;;;;1.10;1.10;;;8.20;99.90;;;;;;5249201;28;20051;-74
2022/03/09 10:13:40;;;;;;;1.42;1.42;;;8.90;99.90;;;;;;5240360;28;20054;-76
2022/03/09 10:16:23;;;;;;;1.27;1.27;;;8.60;99.90;;;;;;5233184;28;20039;-74
2022/03/09 10:19:00;;;;;;;1.60;1.50;;;8.60;99.90;;;;;;5243971;28;20166;-74
2022/03/09 10:21:37;;;;;;;1.10;1.10;;;9.00;99.90;;;;;;5240248;28;20044;-74
2022/03/09 10:24:12;;;;;;;0.93;0.93;;;8.70;99.90;;;;;;5238296;28;20043;-74
2022/03/09 10:26:48;;;;;;;0.75;0.75;;;8.50;99.90;;;;;;5247766;28;20032;-77
2022/03/09 10:29:20;;;;;;;1.60;1.58;;;8.80;99.90;;;;;;5223911;28;20525;-75
2022/03/09 10:31:59;;;;;;;0.52;0.52;;;8.70;99.90;;;;;;5255939;28;20052;-75
2022/03/09 10:34:35;;;;;;;0.77;0.77;;;9.00;99.90;;;;;;5257460;28;20355;-76
2022/03/09 10:37:12;;;;;;;0.63;0.63;;;8.90;99.90;;;;;;5241662;28;20043;-75
2022/03/09 10:39:43;;;;;;;0.85;0.85;;;9.10;99.90;;;;;;5236976;28;20040;-76
2022/03/09 10:42:25;;;;;;;1.02;1.02;;;9.10;99.90;;;;;;5241613;28;20480;-75
2022/03/09 10:44:57;;;;;;;1.02;1.02;;;9.30;99.90;;;;;;5256527;28;20043;-74
2022/03/09 10:47:53;;;;;;;0.80;0.80;;;9.60;99.90;;;;;;5238228;28;20496;-76
2022/03/09 10:50:28;;;;;;;1.13;1.13;;;9.50;99.90;;;;;;5256862;28;20036;-75
2022/03/09 10:53:08;;;;;;;1.00;1.00;;;9.40;99.90;;;;;;5257905;28;20201;-75
2022/03/09 10:55:40;;;;;;;0.77;0.77;;;9.60;99.90;;;;;;5253432;28;20047;-73
2022/03/09 10:58:16;;;;;;;0.90;0.90;;;9.80;99.90;;;;;;5259348;28;20026;-76
2022/03/09 11:00:52;;;;;;;0.73;0.73;;;9.90;99.90;;;;;;5253416;28;20036;-76
2022/03/09 11:03:26;;;;;;;0.80;0.80;;;9.90;99.90;;;;;;5253117;28;20210;-76
2022/03/09 11:06:04;;;;;;;1.00;1.00;;;10.10;99.90;;;;;;5207395;28;20059;-76
2022/03/09 11:08:38;;;;;;;0.73;0.73;;;9.60;99.90;;;;;;5259163;28;20036;-75
2022/03/09 11:11:10;;;;;;;1.17;1.17;;;10.00;99.90;;;;;;5247825;28;20303;-77
2022/03/09 11:13:41;;;;;;;1.25;1.25;;;10.00;99.90;;;;;;5248941;28;20035;-74
2022/03/09 11:16:17;;;;;;;0.70;0.70;;;9.80;99.90;;;;;;5255732;28;20036;-75
2022/03/09 11:18:50;;;;;;;1.00;1.00;;;9.90;99.90;;;;;;5252842;28;20034;-76
2022/03/09 11:21:22;;;;;;;0.90;0.90;;;10.10;99.90;;;;;;5238289;28;20409;-75
2022/03/09 11:23:54;;;;;;;0.90;0.90;;;11.10;99.90;;;;;;5232406;28;20040;-75
2022/03/09 11:26:28;;;;;;;1.42;1.42;;;11.50;99.90;;;;;;5234626;28;20211;-75
2022/03/09 11:29:08;;;;;;;0.80;0.80;;;12.40;99.90;;;;;;5221434;28;20366;-74
2022/03/09 11:31:55;;;;;;;1.00;1.00;;;12.30;99.90;;;;;;5239673;28;20066;-75
2022/03/09 11:34:44;;;;;;;0.60;0.60;;;11.50;99.90;;;;;;5253396;28;20042;-77
2022/03/09 11:37:35;;;;;;;0.77;0.77;;;11.20;99.90;;;;;;5254580;28;20309;-75
2022/03/09 11:40:10;;;;;;;1.67;1.58;;;10.70;99.90;;;;;;5234988;28;20045;-75
2022/03/09 11:42:44;;;;;;;0.75;0.75;;;11.50;99.90;;;;;;5222152;28;20239;-75
2022/03/09 11:45:22;;;;;;;0.80;0.80;;;13.70;99.90;;;;;;5190746;28;20036;-76
2022/03/09 11:48:17;;;;;;;1.23;1.23;;;14.80;99.90;;;;;;5227773;28;20096;-78
2022/03/09 11:50:48;;;;;;;1.35;1.35;;;14.10;99.90;;;;;;5229955;28;20040;-75
2022/03/09 11:53:41;;;;;;;0.95;0.95;;;13.30;99.90;;;;;;5229790;28;20045;-77
2022/03/09 11:56:39;;;;;;;1.05;1.05;;;12.60;99.90;;;;;;5231321;28;20066;-76
2022/03/09 11:59:24;;;;;;;0.70;0.70;;;13.90;99.90;;;;;;5217447;28;20033;-75
2022/03/09 12:01:58;;;;;;;0.90;0.90;;;13.40;99.90;;;;;;5224898;28;20032;-77
2022/03/09 12:04:54;;;;;;;0.73;0.73;;;14.50;99.90;;;;;;5215393;28;20301;-77
2022/03/09 12:07:49;;;;;;;0.80;0.80;;;16.50;99.90;;;;;;5218301;28;20460;-76
2022/03/09 12:10:57;;;;;;;1.65;1.55;;;14.40;99.90;;;;;;5197241;28;20257;-77
2022/03/09 12:13:45;;;;;;;0.70;0.70;;;14.40;99.90;;;;;;5177723;28;20056;-76
2022/03/09 12:16:26;;;;;;;0.82;0.82;;;14.00;99.90;;;;;;5218509;28;20039;-76
2022/03/09 12:19:00;;;;;;;1.02;1.02;;;14.00;99.90;;;;;;5219239;28;20051;-77
2022/03/09 12:21:38;;;;;;;1.77;1.67;;;14.50;99.90;;;;;;5234052;28;20042;-75
2022/03/09 12:24:12;;;;;;;0.73;0.73;;;14.70;99.90;;;;;;5236285;28;20031;-76
2022/03/09 12:26:54;;;;;;;0.73;0.73;;;14.00;99.90;;;;;;5203038;28;20337;-76
2022/03/09 12:29:28;;;;;;;1.15;1.15;;;14.70;99.90;;;;;;5205762;28;20037;-75
2022/03/09 12:32:05;;;;;;;1.15;1.08;;;14.70;99.90;;;;;;5224530;28;20032;-76
2022/03/09 12:34:45;;;;;;;0.70;0.70;;;14.40;99.90;;;;;;5238703;28;20040;-76
2022/03/09 12:37:22;;;;;;;1.13;1.13;;;13.70;99.90;;;;;;5238823;28;20032;-76
2022/03/09 12:40:01;;;;;;;1.10;1.10;;;14.00;99.90;;;;;;5222737;28;20036;-76
2022/03/09 12:42:33;;;;;;;1.40;1.30;;;14.90;99.90;;;;;;5258238;28;20043;-77
2022/03/09 12:45:06;;;;;;;0.90;0.90;;;14.40;99.90;;;;;;5239977;28;20416;-75
2022/03/09 12:47:37;;;;;;;0.77;0.77;;;13.80;99.90;;;;;;5257815;28;20047;-77
2022/03/09 12:50:10;;;;;;;1.00;1.00;;;13.90;99.90;;;;;;5238901;28;20039;-76
2022/03/09 12:52:44;;;;;;;0.70;0.70;;;13.70;99.90;;;;;;5240044;28;20515;-76
2022/03/09 12:55:21;;;;;;;0.70;0.70;;;12.60;99.90;;;;;;5256818;28;20051;-75
2022/03/09 12:57:58;;;;;;;1.15;1.15;;;13.90;99.90;;;;;;5263720;28;20102;-75
2022/03/09 13:00:32;;;;;;;0.70;0.70;;;13.80;99.90;;;;;;5225811;28;20031;-75
2022/03/09 13:03:09;;;;;;;1.02;1.02;;;13.90;99.90;;;;;;5244221;28;20035;-76
2022/03/09 13:05:41;;;;;;;1.13;1.13;;;13.50;99.90;;;;;;5240760;28;20052;-73
2022/03/09 13:08:14;;;;;;;0.90;0.88;;;13.20;99.90;;;;;;5250113;28;20217;-75
2022/03/09 13:10:51;;;;;;;0.80;0.80;;;12.90;99.90;;;;;;5238049;28;20044;-75
2022/03/09 13:13:32;;;;;;;1.00;1.00;;;13.50;99.90;;;;;;5239473;28;20315;-74
2022/03/09 13:16:04;;;;;;;0.82;0.82;;;13.50;99.90;;;;;;5240954;28;20036;-74
2022/03/09 13:18:38;;;;;;;0.70;0.70;;;13.80;99.90;;;;;;5241836;28;20050;-76
2022/03/09 13:21:12;;;;;;;1.98;1.88;;;13.70;99.90;;;;;;5215842;28;20075;-76
2022/03/09 13:23:47;;;;;;;0.70;0.70;;;14.10;99.90;;;;;;5241669;28;20040;-76
2022/03/09 13:26:23;;;;;;;0.90;0.90;;;13.80;99.90;;;;;;5256803;28;20104;-75
2022/03/09 13:29:00;;;;;;;0.77;0.77;;;13.50;99.90;;;;;;5245806;28;20047;-74
2022/03/09 13:32:04;;;;;;;0.98;0.98;;;13.60;99.90;;;;;;5241708;28;20427;-75
2022/03/09 13:34:39;;;;;;;0.90;0.90;;;13.50;99.90;;;;;;5218340;28;20033;-76
2022/03/09 13:37:18;;;;;;;1.10;1.10;;;13.90;99.90;;;;;;5219172;28;20105;-77
2022/03/09 13:39:54;;;;;;;1.17;1.17;;;13.90;99.90;;;;;;5237822;28;20269;-75
2022/03/09 13:42:37;;;;;;;0.80;0.80;;;14.50;99.90;;;;;;5203594;28;20048;-75